createdAt,value
2023-10-17T00:01:37.337Z,101588.81
2023-10-17T00:04:19.237Z,101581.81
2023-10-17T00:07:00.124Z,101581.06
2023-10-17T00:09:27.182Z,101585.38
2023-10-17T00:11:56.526Z,101582.22
2023-10-17T00:14:29.134Z,101584.69
2023-10-17T00:16:58.872Z,101589.91
2023-10-17T00:19:32.794Z,101583.03
2023-10-17T00:22:05.516Z,101579.47
2023-10-17T00:24:32.374Z,101569.66
2023-10-17T00:26:59.453Z,101566.03
2023-10-17T00:29:27.834Z,101559.06
2023-10-17T00:31:55.357Z,101565.16
2023-10-17T00:34:26.791Z,101562.53
2023-10-17T00:37:07.941Z,101562.53
2023-10-17T00:39:34.690Z,101563.88
2023-10-17T00:42:08.835Z,101564.00
2023-10-17T00:44:40.054Z,101562.53
2023-10-17T00:47:20.273Z,101561.78
2023-10-17T00:49:47.360Z,101561.66
2023-10-17T00:52:30.565Z,101556.25
2023-10-17T00:54:58.555Z,101547.50
2023-10-17T00:57:28.715Z,101552.31
2023-10-17T01:00:10.381Z,101540.97
2023-10-17T01:02:46.477Z,101546.22
2023-10-17T01:05:13.599Z,101559.63
2023-10-17T01:07:43.194Z,101547.34
2023-10-17T01:10:19.272Z,101551.06
2023-10-17T01:13:04.048Z,101548.28
2023-10-17T01:15:34.279Z,101550.00
2023-10-17T01:18:07.078Z,101560.31
2023-10-17T01:20:35.433Z,101552.06
2023-10-17T01:23:02.529Z,101553.03
2023-10-17T01:25:39.913Z,101544.38
2023-10-17T01:28:08.163Z,101538.22
2023-10-17T01:30:34.966Z,101536.44
2023-10-17T01:33:01.985Z,101540.97
2023-10-17T01:35:28.899Z,101542.84
2023-10-17T01:37:57.270Z,101541.16
2023-10-17T01:40:24.948Z,101529.84
2023-10-17T01:42:52.572Z,101522.88
2023-10-17T01:45:24.917Z,101522.00
2023-10-17T01:47:55.560Z,101522.69
2023-10-17T01:50:25.642Z,101528.53
2023-10-17T01:52:55.732Z,101526.94
2023-10-17T01:55:27.662Z,101527.00
2023-10-17T01:58:01.458Z,101523.31
2023-10-17T02:00:39.481Z,101512.03
2023-10-17T02:03:14.146Z,101526.13
2023-10-17T02:05:41.197Z,101532.25
2023-10-17T02:08:08.190Z,101532.72
2023-10-17T02:10:35.211Z,101527.88
2023-10-17T02:13:05.445Z,101520.03
2023-10-17T02:15:32.278Z,101528.78
2023-10-17T02:17:59.445Z,101528.66
2023-10-17T02:20:29.188Z,101516.94
2023-10-17T02:23:01.037Z,101519.41
2023-10-17T02:25:36.722Z,101522.81
2023-10-17T02:28:03.903Z,101521.81
2023-10-17T02:30:31.033Z,101513.78
2023-10-17T02:32:58.137Z,101520.22
2023-10-17T02:35:41.353Z,101522.28
2023-10-17T02:38:09.864Z,101520.16
2023-10-17T02:40:41.809Z,101516.91
2023-10-17T02:43:14.358Z,101511.59
2023-10-17T02:45:43.398Z,101506.50
2023-10-17T02:48:27.661Z,101503.03
2023-10-17T02:51:00.501Z,101496.75
2023-10-17T02:53:31.504Z,101495.16
2023-10-17T02:55:58.929Z,101498.81
2023-10-17T02:58:25.678Z,101505.06
2023-10-17T03:00:52.612Z,101495.06
2023-10-17T03:03:21.375Z,101491.41
2023-10-17T03:05:54.917Z,101492.28
2023-10-17T03:08:22.523Z,101493.56
2023-10-17T03:10:56.994Z,101495.16
2023-10-17T03:13:25.142Z,101495.53
2023-10-17T03:15:56.838Z,101489.53
2023-10-17T03:18:24.173Z,101501.59
2023-10-17T03:20:55.453Z,101497.41
2023-10-17T03:23:29.691Z,101496.31
2023-10-17T03:26:06.274Z,101492.88
2023-10-17T03:28:35.886Z,101489.53
2023-10-17T03:31:12.106Z,101487.88
2023-10-17T03:33:43.969Z,101491.50
2023-10-17T03:36:31.318Z,101494.94
2023-10-17T03:39:15.934Z,101484.31
2023-10-17T03:41:43.065Z,101487.69
2023-10-17T03:44:09.908Z,101494.59
2023-10-17T03:46:37.083Z,101492.81
2023-10-17T03:49:05.570Z,101495.34
2023-10-17T03:51:32.777Z,101494.72
2023-10-17T03:54:08.719Z,101503.81
2023-10-17T03:56:47.340Z,101512.28
2023-10-17T03:59:14.718Z,101503.47
2023-10-17T04:01:42.903Z,101507.09
2023-10-17T04:04:21.122Z,101502.88
2023-10-17T04:06:58.019Z,101491.84
2023-10-17T04:09:29.201Z,101501.56
2023-10-17T04:12:05.025Z,101497.00
2023-10-17T04:14:51.796Z,101508.34
2023-10-17T04:17:24.862Z,101517.25
2023-10-17T04:20:00.559Z,101516.38
2023-10-17T04:22:30.863Z,101518.00
2023-10-17T04:25:02.466Z,101515.50
2023-10-17T04:27:36.236Z,101510.94
2023-10-17T04:30:09.233Z,101503.84
2023-10-17T04:32:40.021Z,101511.72
2023-10-17T04:35:08.516Z,101508.56
2023-10-17T04:37:46.344Z,101512.19
2023-10-17T04:40:38.738Z,101511.16
2023-10-17T04:43:40.699Z,101519.44
2023-10-17T04:46:10.009Z,101512.19
2023-10-17T04:48:37.705Z,101505.78
2023-10-17T04:51:21.413Z,101505.97
2023-10-17T04:53:51.688Z,101500.69
2023-10-17T04:56:23.279Z,101499.09
2023-10-17T04:58:50.775Z,101486.66
2023-10-17T05:01:44.069Z,101491.69
2023-10-17T05:04:34.058Z,101481.94
2023-10-17T05:07:00.990Z,101480.97
2023-10-17T05:09:36.821Z,101479.97
2023-10-17T05:12:29.879Z,101483.75
2023-10-17T05:15:15.254Z,101487.50
2023-10-17T05:18:00.824Z,101491.09
2023-10-17T05:20:46.168Z,101496.56
2023-10-17T05:23:37.207Z,101495.53
2023-10-17T05:26:26.722Z,101497.22
2023-10-17T05:29:13.151Z,101508.84
2023-10-17T05:32:00.910Z,101501.50
2023-10-17T05:34:49.286Z,101499.84
2023-10-17T05:37:34.833Z,101503.69
2023-10-17T05:40:20.086Z,101507.34
2023-10-17T05:43:08.995Z,101504.28
2023-10-17T05:45:54.475Z,101507.38
2023-10-17T05:48:41.141Z,101505.63
2023-10-17T05:51:26.742Z,101507.72
2023-10-17T05:54:40.563Z,101505.44
2023-10-17T05:57:17.943Z,101511.78
2023-10-17T06:00:03.260Z,101508.22
2023-10-17T06:02:48.661Z,101517.03
2023-10-17T06:05:34.068Z,101514.16
2023-10-17T06:08:19.508Z,101521.91
2023-10-17T06:11:37.165Z,101528.88
2023-10-17T06:14:22.576Z,101528.53
2023-10-17T06:16:55.295Z,101522.31
2023-10-17T06:19:22.932Z,101530.13
2023-10-17T06:22:01.946Z,101527.25
2023-10-17T06:24:29.830Z,101527.56
2023-10-17T06:26:59.443Z,101531.84
2023-10-17T06:29:34.221Z,101534.44
2023-10-17T06:32:18.619Z,101537.78
2023-10-17T06:34:46.749Z,101538.19
2023-10-17T06:37:20.772Z,101531.00
2023-10-17T06:39:48.729Z,101527.16
2023-10-17T06:42:16.309Z,101522.03
2023-10-17T06:44:55.948Z,101528.31
2023-10-17T06:47:31.910Z,101523.59
2023-10-17T06:50:14.459Z,101521.88
2023-10-17T06:52:53.715Z,101529.63
2023-10-17T06:55:30.171Z,101523.69
2023-10-17T06:57:59.210Z,101528.03
2023-10-17T07:00:26.660Z,101529.28
2023-10-17T07:02:58.115Z,101533.66
2023-10-17T07:05:25.729Z,101528.66
2023-10-17T07:07:55.831Z,101523.22
2023-10-17T07:10:25.354Z,101519.72
2023-10-17T07:13:29.837Z,101518.81
2023-10-17T07:15:56.828Z,101512.56
2023-10-17T07:18:42.411Z,101507.50
2023-10-17T07:21:15.220Z,101514.16
2023-10-17T07:23:46.776Z,101518.53
2023-10-17T07:26:19.151Z,101520.81
2023-10-17T07:28:46.227Z,101515.31
2023-10-17T07:31:13.037Z,101518.63
2023-10-17T07:33:43.582Z,101515.31
2023-10-17T07:36:17.516Z,101516.06
2023-10-17T07:38:47.025Z,101522.78
2023-10-17T07:41:34.031Z,101526.28
2023-10-17T07:44:10.219Z,101519.84
2023-10-17T07:46:39.924Z,101519.50
2023-10-17T07:49:06.856Z,101517.81
2023-10-17T07:51:36.611Z,101522.00
2023-10-17T07:54:09.034Z,101510.50
2023-10-17T07:56:35.944Z,101512.53
2023-10-17T07:59:10.030Z,101523.22
2023-10-17T08:01:43.677Z,101528.63
2023-10-17T08:04:17.146Z,101530.13
2023-10-17T08:06:44.683Z,101518.72
2023-10-17T08:09:39.655Z,101513.63
2023-10-17T08:12:14.182Z,101512.38
2023-10-17T08:14:43.909Z,101515.78
2023-10-17T08:17:11.105Z,101513.38
2023-10-17T08:19:58.012Z,101511.56
2023-10-17T08:22:28.350Z,101514.38
2023-10-17T08:24:55.249Z,101511.31
2023-10-17T08:27:25.470Z,101504.41
2023-10-17T08:30:10.997Z,101510.78
2023-10-17T08:32:40.940Z,101504.41
2023-10-17T08:35:27.441Z,101499.59
2023-10-17T08:37:54.138Z,101510.63
2023-10-17T08:40:39.156Z,101504.44
2023-10-17T08:43:07.939Z,101502.75
2023-10-17T08:45:38.821Z,101513.22
2023-10-17T08:48:07.713Z,101512.88
2023-10-17T08:50:41.186Z,101501.81
2023-10-17T08:53:21.467Z,101509.06
2023-10-17T08:55:53.024Z,101515.97
2023-10-17T08:58:26.438Z,101515.50
2023-10-17T09:01:09.021Z,101516.91
2023-10-17T09:03:39.761Z,101516.84
2023-10-17T09:06:29.920Z,101517.41
2023-10-17T09:08:57.495Z,101517.06
2023-10-17T09:11:43.202Z,101512.13
2023-10-17T09:14:28.796Z,101504.75
2023-10-17T09:17:19.523Z,101496.41
2023-10-17T09:19:48.162Z,101505.97
2023-10-17T09:22:16.549Z,101510.41
2023-10-17T09:24:51.364Z,101501.44
2023-10-17T09:27:20.050Z,101508.22
2023-10-17T09:29:57.387Z,101508.72
2023-10-17T09:32:39.128Z,101491.53
2023-10-17T09:35:15.672Z,101502.63
2023-10-17T09:37:47.108Z,101497.97
2023-10-17T09:40:19.840Z,101501.44
2023-10-17T09:42:47.416Z,101499.38
2023-10-17T09:45:32.579Z,101492.19
2023-10-17T09:48:07.086Z,101489.16
2023-10-17T09:50:36.270Z,101491.53
2023-10-17T09:53:18.990Z,101496.44
2023-10-17T09:55:51.773Z,101484.84
2023-10-17T09:58:29.538Z,101483.78
2023-10-17T10:01:01.780Z,101487.75
2023-10-17T10:03:30.123Z,101493.41
2023-10-17T10:06:25.081Z,101480.78
2023-10-17T10:09:07.956Z,101488.38
2023-10-17T10:11:50.315Z,101486.31
2023-10-17T10:14:36.771Z,101484.84
2023-10-17T10:17:07.310Z,101490.72
2023-10-17T10:19:43.471Z,101494.41
2023-10-17T10:22:15.614Z,101508.88
2023-10-17T10:24:44.152Z,101501.13
2023-10-17T10:27:26.626Z,101499.97
2023-10-17T10:29:55.964Z,101500.69
2023-10-17T10:32:34.553Z,101487.66
2023-10-17T10:35:06.605Z,101491.78
2023-10-17T10:37:55.092Z,101479.69
2023-10-17T10:40:27.648Z,101483.66
2023-10-17T10:42:57.544Z,101489.09
2023-10-17T10:45:49.475Z,101473.25
2023-10-17T10:48:23.891Z,101480.41
2023-10-17T10:50:57.059Z,101476.19
2023-10-17T10:53:34.666Z,101471.53
2023-10-17T10:56:11.924Z,101461.50
2023-10-17T10:58:54.693Z,101463.59
2023-10-17T11:01:22.380Z,101461.41
2023-10-17T11:03:54.871Z,101452.94
2023-10-17T11:06:26.822Z,101455.88
2023-10-17T11:08:56.673Z,101451.78
2023-10-17T11:11:23.989Z,101448.22
2023-10-17T11:13:52.515Z,101454.53
2023-10-17T11:16:22.277Z,101453.56
2023-10-17T11:18:49.713Z,101457.34
2023-10-17T11:21:24.700Z,101432.69
2023-10-17T11:23:58.716Z,101437.06
2023-10-17T11:26:29.397Z,101431.00
2023-10-17T11:28:57.751Z,101433.38
2023-10-17T11:31:30.841Z,101423.91
2023-10-17T11:34:06.113Z,101418.94
2023-10-17T11:36:50.009Z,101417.13
2023-10-17T11:39:17.114Z,101411.97
2023-10-17T11:41:57.417Z,101413.16
2023-10-17T11:44:26.164Z,101400.69
2023-10-17T11:47:02.577Z,101404.78
2023-10-17T11:49:34.796Z,101404.03
2023-10-17T11:52:13.886Z,101399.53
2023-10-17T11:55:05.299Z,101398.97
2023-10-17T11:57:35.032Z,101394.34
2023-10-17T12:00:21.491Z,101392.25
2023-10-17T12:02:49.512Z,101388.38
2023-10-17T12:05:21.304Z,101382.34
2023-10-17T12:07:56.782Z,101377.47
2023-10-17T12:10:25.923Z,101375.03
2023-10-17T12:12:54.197Z,101367.41
2023-10-17T12:15:23.850Z,101365.94
2023-10-17T12:17:51.537Z,101364.75
2023-10-17T12:20:20.827Z,101363.16
2023-10-17T12:22:48.092Z,101358.97
2023-10-17T12:25:18.032Z,101352.44
2023-10-17T12:27:51.496Z,101350.44
2023-10-17T12:30:24.251Z,101347.66
2023-10-17T12:32:51.339Z,101341.44
2023-10-17T12:35:22.874Z,101340.50
2023-10-17T12:37:53.915Z,101343.25
2023-10-17T12:40:20.643Z,101336.94
2023-10-17T12:42:48.040Z,101340.91
2023-10-17T12:45:19.067Z,101336.09
2023-10-17T12:47:52.218Z,101334.06
2023-10-17T12:50:21.864Z,101328.06
2023-10-17T12:52:48.844Z,101325.06
2023-10-17T12:55:15.744Z,101325.66
2023-10-17T12:57:44.578Z,101326.19
2023-10-17T13:00:12.942Z,101318.75
2023-10-17T13:02:40.766Z,101321.00
2023-10-17T13:05:12.196Z,101312.03
2023-10-17T13:07:40.207Z,101302.41
2023-10-17T13:10:08.695Z,101295.88
2023-10-17T13:12:36.066Z,101303.34
2023-10-17T13:15:02.968Z,101309.38
2023-10-17T13:17:30.179Z,101299.91
2023-10-17T13:19:59.052Z,101300.81
2023-10-17T13:22:26.500Z,101296.69
2023-10-17T13:24:53.740Z,101286.78
2023-10-17T13:27:23.149Z,101278.91
2023-10-17T13:29:54.212Z,101274.66
2023-10-17T13:32:20.900Z,101271.31
2023-10-17T13:34:48.092Z,101267.84
2023-10-17T13:37:14.835Z,101275.41
2023-10-17T13:39:45.173Z,101273.53
2023-10-17T13:42:12.099Z,101272.44
2023-10-17T13:44:38.925Z,101280.31
2023-10-17T13:47:09.037Z,101266.88
2023-10-17T13:49:35.946Z,101274.28
2023-10-17T13:52:04.970Z,101259.22
2023-10-17T13:54:38.882Z,101248.91
2023-10-17T13:57:08.436Z,101246.66
2023-10-17T13:59:41.190Z,101237.09
2023-10-17T14:02:08.206Z,101247.94
2023-10-17T14:04:38.409Z,101241.81
2023-10-17T14:07:05.481Z,101246.19
2023-10-17T14:09:32.533Z,101238.16
2023-10-17T14:12:00.702Z,101238.41
2023-10-17T14:14:29.414Z,101234.31
2023-10-17T14:16:58.060Z,101233.00
2023-10-17T14:19:36.731Z,101229.94
2023-10-17T14:22:10.321Z,101218.66
2023-10-17T14:24:55.539Z,101217.78
2023-10-17T14:27:31.153Z,101213.28
2023-10-17T14:30:01.678Z,101208.75
2023-10-17T14:32:29.879Z,101214.09
2023-10-17T14:35:00.688Z,101205.63
2023-10-17T14:37:29.211Z,101208.06
2023-10-17T14:39:56.370Z,101213.44
2023-10-17T14:42:23.470Z,101218.66
2023-10-17T14:44:53.684Z,101215.25
2023-10-17T14:47:23.795Z,101202.72
2023-10-17T14:49:50.663Z,101208.94
2023-10-17T14:52:22.061Z,101207.19
2023-10-17T14:54:50.052Z,101204.94
2023-10-17T14:57:18.981Z,101214.06
2023-10-17T14:59:46.419Z,101214.50
2023-10-17T15:02:16.127Z,101226.22
2023-10-17T15:04:43.532Z,101226.78
2023-10-17T15:07:10.729Z,101228.63
2023-10-17T15:09:37.778Z,101219.34
2023-10-17T15:12:05.376Z,101215.06
2023-10-17T15:14:34.922Z,101210.28
2023-10-17T15:17:01.839Z,101210.66
2023-10-17T15:19:30.462Z,101200.16
2023-10-17T15:21:58.301Z,101190.25
2023-10-17T15:24:30.076Z,101190.75
2023-10-17T15:26:59.973Z,101188.31
2023-10-17T15:29:27.223Z,101190.69
2023-10-17T15:31:56.343Z,101190.94
2023-10-17T15:34:24.979Z,101190.94
2023-10-17T15:36:53.184Z,101188.38
2023-10-17T15:39:27.150Z,101188.78
2023-10-17T15:41:54.702Z,101194.56
2023-10-17T15:44:21.795Z,101192.47
2023-10-17T15:46:50.130Z,101196.28
2023-10-17T15:49:17.912Z,101201.53
2023-10-17T15:51:44.868Z,101194.81
2023-10-17T15:54:11.839Z,101197.88
2023-10-17T15:56:38.763Z,101192.53
2023-10-17T15:59:09.910Z,101195.19
2023-10-17T16:01:42.474Z,101189.44
2023-10-17T16:04:10.877Z,101196.94
2023-10-17T16:06:39.921Z,101196.34
2023-10-17T16:09:08.722Z,101191.13
2023-10-17T16:11:35.523Z,101187.78
2023-10-17T16:14:09.146Z,101190.25
2023-10-17T16:16:38.016Z,101187.50
2023-10-17T16:19:08.140Z,101203.28
2023-10-17T16:21:39.087Z,101192.25
2023-10-17T16:24:08.277Z,101196.69
2023-10-17T16:26:36.845Z,101204.09
2023-10-17T16:29:03.686Z,101201.81
2023-10-17T16:31:30.564Z,101200.84
2023-10-17T16:33:57.455Z,101208.22
2023-10-17T16:36:24.229Z,101209.94
2023-10-17T16:38:50.957Z,101207.41
2023-10-17T16:41:17.764Z,101204.03
2023-10-17T16:43:44.625Z,101210.06
2023-10-17T16:46:13.242Z,101209.13
2023-10-17T16:48:40.207Z,101212.97
2023-10-17T16:51:07.044Z,101218.63
2023-10-17T16:53:37.285Z,101217.22
2023-10-17T16:56:05.210Z,101221.16
2023-10-17T16:58:35.744Z,101224.34
2023-10-17T17:01:07.592Z,101233.38
2023-10-17T17:03:34.591Z,101235.09
2023-10-17T17:06:07.105Z,101227.63
2023-10-17T17:08:35.705Z,101225.25
2023-10-17T17:11:06.420Z,101233.16
2023-10-17T17:13:34.980Z,101230.47
2023-10-17T17:16:02.917Z,101227.72
2023-10-17T17:18:46.551Z,101230.84
2023-10-17T17:21:24.222Z,101219.97
2023-10-17T17:23:51.165Z,101217.19
2023-10-17T17:26:18.481Z,101220.44
2023-10-17T17:28:45.631Z,101223.59
2023-10-17T17:31:12.640Z,101219.50
2023-10-17T17:33:39.530Z,101209.13
2023-10-17T17:36:07.968Z,101218.13
2023-10-17T17:38:36.605Z,101214.88
2023-10-17T17:41:06.986Z,101212.50
2023-10-17T17:43:33.995Z,101205.03
2023-10-17T17:46:01.109Z,101209.59
2023-10-17T17:48:28.106Z,101208.22
2023-10-17T17:50:56.773Z,101203.75
2023-10-17T17:53:26.559Z,101203.25
2023-10-17T17:55:53.473Z,101199.91
2023-10-17T17:58:20.328Z,101192.13
2023-10-17T18:00:54.610Z,101186.25
2023-10-17T18:03:21.840Z,101182.66
2023-10-17T18:05:49.123Z,101188.91
2023-10-17T18:08:18.109Z,101186.25
2023-10-17T18:10:46.490Z,101189.72
2023-10-17T18:13:13.927Z,101186.13
2023-10-17T18:15:41.533Z,101191.06
2023-10-17T18:18:08.673Z,101199.97
2023-10-17T18:20:35.952Z,101209.25
2023-10-17T18:23:02.859Z,101209.59
2023-10-17T18:25:32.148Z,101206.94
2023-10-17T18:27:59.257Z,101201.09
2023-10-17T18:30:26.242Z,101201.31
2023-10-17T18:32:53.217Z,101197.13
2023-10-17T18:35:20.014Z,101194.31
2023-10-17T18:37:49.935Z,101196.00
2023-10-17T18:40:17.212Z,101190.13
2023-10-17T18:42:44.225Z,101182.91
2023-10-17T18:45:16.121Z,101180.63
2023-10-17T18:47:43.806Z,101171.97
2023-10-17T18:50:12.365Z,101167.69
2023-10-17T18:52:39.294Z,101166.38
2023-10-17T18:55:12.544Z,101163.50
2023-10-17T18:57:43.500Z,101168.88
2023-10-17T19:00:19.770Z,101163.56
2023-10-17T19:02:50.652Z,101161.31
2023-10-17T19:05:17.680Z,101163.69
2023-10-17T19:07:44.761Z,101170.78
2023-10-17T19:10:15.908Z,101170.72
2023-10-17T19:12:52.251Z,101169.00
2023-10-17T19:15:21.609Z,101169.59
2023-10-17T19:17:50.790Z,101155.91
2023-10-17T19:20:17.813Z,101155.91
2023-10-17T19:22:44.634Z,101156.06
2023-10-17T19:25:12.334Z,101148.00
2023-10-17T19:27:39.727Z,101146.38
2023-10-17T19:30:08.781Z,101141.06
2023-10-17T19:32:35.663Z,101144.97
2023-10-17T19:35:03.737Z,101145.06
2023-10-17T19:37:30.906Z,101135.47
2023-10-17T19:39:57.670Z,101142.50
2023-10-17T19:42:24.472Z,101144.28
2023-10-17T19:44:51.199Z,101141.88
2023-10-17T19:47:17.963Z,101147.34
2023-10-17T19:49:45.964Z,101150.84
2023-10-17T19:52:12.777Z,101143.94
2023-10-17T19:54:39.787Z,101158.19
2023-10-17T19:57:06.644Z,101157.50
2023-10-17T19:59:33.484Z,101153.69
2023-10-17T20:02:01.457Z,101145.22
2023-10-17T20:04:31.330Z,101140.53
2023-10-17T20:06:59.847Z,101135.06
2023-10-17T20:09:27.926Z,101134.59
2023-10-17T20:11:55.444Z,101120.75
2023-10-17T20:14:22.542Z,101110.88
2023-10-17T20:16:49.565Z,101118.91
2023-10-17T20:19:16.459Z,101121.53
2023-10-17T20:21:43.240Z,101105.41
2023-10-17T20:24:12.224Z,101107.59
2023-10-17T20:26:40.788Z,101104.63
2023-10-17T20:29:10.798Z,101092.78
2023-10-17T20:31:38.761Z,101105.81
2023-10-17T20:34:05.831Z,101100.19
2023-10-17T20:36:32.809Z,101086.84
2023-10-17T20:38:59.647Z,101093.47
2023-10-17T20:41:29.070Z,101096.44
2023-10-17T20:43:56.208Z,101098.56
2023-10-17T20:46:24.510Z,101099.34
2023-10-17T20:48:54.343Z,101095.13
2023-10-17T20:51:21.138Z,101091.84
2023-10-17T20:53:48.254Z,101088.88
2023-10-17T20:56:26.134Z,101083.25
2023-10-17T20:59:01.660Z,101085.84
2023-10-17T21:01:28.462Z,101078.16
2023-10-17T21:03:56.486Z,101074.78
2023-10-17T21:06:23.668Z,101073.16
2023-10-17T21:08:50.780Z,101079.84
2023-10-17T21:11:19.100Z,101073.66
2023-10-17T21:13:46.895Z,101065.66
2023-10-17T21:16:14.091Z,101067.19
2023-10-17T21:18:40.972Z,101061.16
2023-10-17T21:21:10.691Z,101053.34
2023-10-17T21:23:37.560Z,101050.69
2023-10-17T21:26:05.200Z,101040.31
2023-10-17T21:28:32.464Z,101043.03
2023-10-17T21:31:03.779Z,101047.25
2023-10-17T21:33:33.321Z,101053.50
2023-10-17T21:36:00.766Z,101048.34
2023-10-17T21:38:27.799Z,101042.69
2023-10-17T21:41:00.653Z,101040.34
2023-10-17T21:43:27.997Z,101040.34
2023-10-17T21:45:54.828Z,101034.13
2023-10-17T21:48:22.271Z,101038.88
2023-10-17T21:51:03.610Z,101035.84
2023-10-17T21:53:38.471Z,101036.53
2023-10-17T21:56:07.207Z,101032.78
2023-10-17T21:58:34.547Z,101026.72
2023-10-17T22:01:04.302Z,101019.28
2023-10-17T22:03:33.153Z,101018.53
2023-10-17T22:06:03.078Z,101016.19
2023-10-17T22:08:29.851Z,101014.53
2023-10-17T22:10:56.722Z,101023.66
2023-10-17T22:13:23.540Z,101013.31
2023-10-17T22:15:50.857Z,101018.91
2023-10-17T22:18:17.742Z,101018.28
2023-10-17T22:20:44.579Z,101020.53
2023-10-17T22:23:12.871Z,101012.50
2023-10-17T22:25:39.696Z,101011.66
2023-10-17T22:28:06.551Z,101001.06
2023-10-17T22:30:34.208Z,101007.97
2023-10-17T22:33:00.994Z,101006.03
2023-10-17T22:35:28.182Z,101002.22
2023-10-17T22:37:55.532Z,100994.66
2023-10-17T22:40:22.424Z,100992.75
2023-10-17T22:42:52.615Z,100990.91
2023-10-17T22:45:19.655Z,100995.81
2023-10-17T22:47:47.187Z,100993.25
2023-10-17T22:50:14.330Z,100986.38
2023-10-17T22:52:41.330Z,100991.16
2023-10-17T22:55:11.179Z,100980.47
2023-10-17T22:57:38.402Z,100987.25
2023-10-17T23:00:09.418Z,100983.13
2023-10-17T23:02:36.251Z,100970.00
2023-10-17T23:05:03.268Z,100979.06
2023-10-17T23:07:30.156Z,100962.56
2023-10-17T23:09:56.952Z,100969.00
2023-10-17T23:12:23.746Z,100977.19
2023-10-17T23:14:50.604Z,100974.53
2023-10-17T23:17:17.636Z,100981.69
2023-10-17T23:19:44.421Z,100967.53
2023-10-17T23:22:11.251Z,100967.53
2023-10-17T23:24:38.133Z,100962.84
2023-10-17T23:27:06.884Z,100960.50
2023-10-17T23:29:33.625Z,100968.69
2023-10-17T23:32:00.391Z,100964.25
2023-10-17T23:34:28.257Z,100963.56
2023-10-17T23:36:55.011Z,100952.25
2023-10-17T23:39:25.190Z,100956.69
2023-10-17T23:41:52.345Z,100953.66
2023-10-17T23:44:19.248Z,100941.66
2023-10-17T23:46:46.115Z,100934.75
2023-10-17T23:49:13.057Z,100927.50
2023-10-17T23:51:39.993Z,100928.41
2023-10-17T23:54:07.395Z,100933.22
2023-10-17T23:56:34.930Z,100933.72
2023-10-17T23:59:02.551Z,100935.56
